sensor_id;sensor_type;location;lat;lon;timestamp;pressure;altitude;pressure_sealevel;temperature;humidity
23574;BME280;11965;53.640;10.050;2022-07-21T00:00:29;101260.31;;;22.95;57.08
23574;BME280;11965;53.640;10.050;2022-07-21T00:02:56;101273.59;;;22.94;57.21
23574;BME280;11965;53.640;10.050;2022-07-21T00:05:22;101275.81;;;22.92;57.24
23574;BME280;11965;53.640;10.050;2022-07-21T00:07:49;101272.72;;;22.94;56.25
23574;BME280;11965;53.640;10.050;2022-07-21T00:10:15;101267.94;;;22.94;57.50
23574;BME280;11965;53.640;10.050;2022-07-21T00:12:41;101265.09;;;22.94;57.44
23574;BME280;11965;53.640;10.050;2022-07-21T00:15:07;101257.09;;;22.86;57.28
23574;BME280;11965;53.640;10.050;2022-07-21T00:17:33;101261.22;;;22.74;57.64
23574;BME280;11965;53.640;10.050;2022-07-21T00:19:59;101259.53;;;22.78;58.33
23574;BME280;11965;53.640;10.050;2022-07-21T00:22:25;101273.41;;;22.79;57.92
23574;BME280;11965;53.640;10.050;2022-07-21T00:24:50;101268.31;;;22.76;58.05
23574;BME280;11965;53.640;10.050;2022-07-21T00:27:16;101272.81;;;22.77;58.75
23574;BME280;11965;53.640;10.050;2022-07-21T00:29:41;101263.38;;;22.66;59.12
23574;BME280;11965;53.640;10.050;2022-07-21T00:32:06;101246.13;;;22.63;59.06
23574;BME280;11965;53.640;10.050;2022-07-21T00:34:32;101248.41;;;22.66;59.77
23574;BME280;11965;53.640;10.050;2022-07-21T00:36:58;101243.34;;;22.68;59.59
23574;BME280;11965;53.640;10.050;2022-07-21T00:39:24;101239.34;;;22.64;59.13
23574;BME280;11965;53.640;10.050;2022-07-21T00:41:50;101238.38;;;22.53;60.14
23574;BME280;11965;53.640;10.050;2022-07-21T00:44:22;101230.91;;;22.42;60.30
23574;BME280;11965;53.640;10.050;2022-07-21T00:46:49;101215.09;;;22.41;61.09
23574;BME280;11965;53.640;10.050;2022-07-21T00:49:15;101220.69;;;22.36;61.26
23574;BME280;11965;53.640;10.050;2022-07-21T00:51:42;101213.59;;;22.33;60.67
23574;BME280;11965;53.640;10.050;2022-07-21T00:54:07;101225.41;;;22.30;61.09
23574;BME280;11965;53.640;10.050;2022-07-21T00:56:34;101223.69;;;22.29;61.79
23574;BME280;11965;53.640;10.050;2022-07-21T00:59:00;101217.78;;;22.31;61.96
23574;BME280;11965;53.640;10.050;2022-07-21T01:01:26;101223.16;;;22.32;61.69
23574;BME280;11965;53.640;10.050;2022-07-21T01:03:51;101217.91;;;22.19;62.25
23574;BME280;11965;53.640;10.050;2022-07-21T01:06:17;101210.53;;;22.18;62.00
23574;BME280;11965;53.640;10.050;2022-07-21T01:08:42;101209.78;;;22.05;62.35
23574;BME280;11965;53.640;10.050;2022-07-21T01:11:08;101202.47;;;22.04;62.75
23574;BME280;11965;53.640;10.050;2022-07-21T01:13:34;101208.94;;;22.05;63.30
23574;BME280;11965;53.640;10.050;2022-07-21T01:16:07;101203.53;;;21.98;63.80
23574;BME280;11965;53.640;10.050;2022-07-21T01:18:33;101213.09;;;21.97;64.18
23574;BME280;11965;53.640;10.050;2022-07-21T01:21:03;101218.41;;;21.94;63.26
23574;BME280;11965;53.640;10.050;2022-07-21T01:23:29;101221.16;;;21.89;64.75
23574;BME280;11965;53.640;10.050;2022-07-21T01:25:55;101215.50;;;21.89;64.25
23574;BME280;11965;53.640;10.050;2022-07-21T01:28:20;101222.28;;;21.88;63.47
23574;BME280;11965;53.640;10.050;2022-07-21T01:30:47;101213.22;;;21.86;64.48
23574;BME280;11965;53.640;10.050;2022-07-21T01:33:12;101231.78;;;21.81;65.22
23574;BME280;11965;53.640;10.050;2022-07-21T01:35:37;101229.31;;;21.85;64.18
23574;BME280;11965;53.640;10.050;2022-07-21T01:38:03;101213.16;;;21.80;64.57
23574;BME280;11965;53.640;10.050;2022-07-21T01:40:29;101206.06;;;21.78;65.02
23574;BME280;11965;53.640;10.050;2022-07-21T01:43:12;101219.47;;;21.71;65.48
23574;BME280;11965;53.640;10.050;2022-07-21T01:45:39;101218.91;;;21.69;65.60
23574;BME280;11965;53.640;10.050;2022-07-21T01:48:05;101245.41;;;21.68;66.07
23574;BME280;11965;53.640;10.050;2022-07-21T01:50:31;101298.34;;;21.60;66.62
23574;BME280;11965;53.640;10.050;2022-07-21T01:52:58;101343.50;;;21.32;68.53
23574;BME280;11965;53.640;10.050;2022-07-21T01:55:25;101334.94;;;21.27;69.56
23574;BME280;11965;53.640;10.050;2022-07-21T01:57:51;101330.84;;;21.17;70.84
23574;BME280;11965;53.640;10.050;2022-07-21T02:00:17;101336.38;;;21.12;71.45
23574;BME280;11965;53.640;10.050;2022-07-21T02:02:44;101362.84;;;21.11;71.67
23574;BME280;11965;53.640;10.050;2022-07-21T02:05:10;101359.28;;;21.16;71.90
23574;BME280;11965;53.640;10.050;2022-07-21T02:07:35;101347.59;;;21.24;71.23
23574;BME280;11965;53.640;10.050;2022-07-21T02:10:01;101332.75;;;21.29;70.21
23574;BME280;11965;53.640;10.050;2022-07-21T02:12:26;101329.88;;;21.40;70.90
23574;BME280;11965;53.640;10.050;2022-07-21T02:14:52;101327.03;;;21.40;70.34
23574;BME280;11965;53.640;10.050;2022-07-21T02:17:18;101324.50;;;21.39;69.65
23574;BME280;11965;53.640;10.050;2022-07-21T02:19:43;101332.06;;;21.38;69.74
23574;BME280;11965;53.640;10.050;2022-07-21T02:22:09;101334.81;;;21.33;70.47
23574;BME280;11965;53.640;10.050;2022-07-21T02:24:34;101336.41;;;21.29;70.61
23574;BME280;11965;53.640;10.050;2022-07-21T02:27:01;101334.94;;;21.27;70.70
23574;BME280;11965;53.640;10.050;2022-07-21T02:29:26;101335.56;;;21.29;71.11
23574;BME280;11965;53.640;10.050;2022-07-21T02:31:52;101344.34;;;21.15;71.85
23574;BME280;11965;53.640;10.050;2022-07-21T02:34:18;101340.06;;;21.13;72.53
23574;BME280;11965;53.640;10.050;2022-07-21T02:36:43;101343.22;;;21.16;72.36
23574;BME280;11965;53.640;10.050;2022-07-21T02:39:09;101335.13;;;21.20;72.82
23574;BME280;11965;53.640;10.050;2022-07-21T02:41:35;101331.94;;;21.16;73.30
23574;BME280;11965;53.640;10.050;2022-07-21T02:44:00;101324.25;;;21.12;73.34
23574;BME280;11965;53.640;10.050;2022-07-21T02:46:26;101330.66;;;21.07;73.91
23574;BME280;11965;53.640;10.050;2022-07-21T02:48:52;101324.50;;;21.10;74.57
23574;BME280;11965;53.640;10.050;2022-07-21T02:51:17;101319.38;;;21.07;74.88
23574;BME280;11965;53.640;10.050;2022-07-21T02:53:42;101313.31;;;21.15;74.29
23574;BME280;11965;53.640;10.050;2022-07-21T02:56:08;101302.66;;;21.17;74.66
23574;BME280;11965;53.640;10.050;2022-07-21T02:58:33;101301.00;;;21.05;75.84
23574;BME280;11965;53.640;10.050;2022-07-21T03:01:03;101307.00;;;21.08;75.38
23574;BME280;11965;53.640;10.050;2022-07-21T03:03:31;101323.47;;;21.00;76.38
23574;BME280;11965;53.640;10.050;2022-07-21T03:05:58;101324.06;;;21.02;77.03
23574;BME280;11965;53.640;10.050;2022-07-21T03:08:25;101325.31;;;20.94;77.16
23574;BME280;11965;53.640;10.050;2022-07-21T03:10:50;101318.34;;;20.96;77.89
23574;BME280;11965;53.640;10.050;2022-07-21T03:13:16;101315.09;;;21.05;77.22
23574;BME280;11965;53.640;10.050;2022-07-21T03:15:42;101326.88;;;21.02;77.50
23574;BME280;11965;53.640;10.050;2022-07-21T03:18:08;101318.75;;;20.88;78.34
23574;BME280;11965;53.640;10.050;2022-07-21T03:20:35;101302.25;;;20.80;79.03
23574;BME280;11965;53.640;10.050;2022-07-21T03:23:02;101301.84;;;20.88;79.22
23574;BME280;11965;53.640;10.050;2022-07-21T03:25:27;101301.44;;;20.96;78.35
23574;BME280;11965;53.640;10.050;2022-07-21T03:27:53;101312.84;;;20.90;78.88
23574;BME280;11965;53.640;10.050;2022-07-21T03:30:20;101302.91;;;20.87;79.03
23574;BME280;11965;53.640;10.050;2022-07-21T03:32:47;101300.72;;;20.89;79.30
23574;BME280;11965;53.640;10.050;2022-07-21T03:35:13;101319.50;;;20.84;79.96
23574;BME280;11965;53.640;10.050;2022-07-21T03:37:47;101325.22;;;20.89;80.28
23574;BME280;11965;53.640;10.050;2022-07-21T03:40:18;101327.63;;;20.97;80.80
23574;BME280;11965;53.640;10.050;2022-07-21T03:42:46;101328.25;;;20.99;80.25
23574;BME280;11965;53.640;10.050;2022-07-21T03:45:12;101330.78;;;21.01;79.95
23574;BME280;11965;53.640;10.050;2022-07-21T03:47:38;101333.69;;;20.89;81.60
23574;BME280;11965;53.640;10.050;2022-07-21T03:50:04;101330.63;;;20.90;81.60
23574;BME280;11965;53.640;10.050;2022-07-21T03:52:30;101326.63;;;21.03;80.75
23574;BME280;11965;53.640;10.050;2022-07-21T03:54:57;101324.69;;;21.21;79.65
23574;BME280;11965;53.640;10.050;2022-07-21T03:58:02;101327.41;;;21.15;79.97
23574;BME280;11965;53.640;10.050;2022-07-21T04:00:30;101337.00;;;21.14;80.82
23574;BME280;11965;53.640;10.050;2022-07-21T04:02:58;101332.03;;;21.22;79.87
23574;BME280;11965;53.640;10.050;2022-07-21T04:05:25;101334.00;;;21.21;80.50
23574;BME280;11965;53.640;10.050;2022-07-21T04:07:52;101329.59;;;21.25;80.51
23574;BME280;11965;53.640;10.050;2022-07-21T04:10:30;101336.06;;;21.26;79.23
23574;BME280;11965;53.640;10.050;2022-07-21T04:12:58;101345.19;;;21.33;79.12
23574;BME280;11965;53.640;10.050;2022-07-21T04:15:25;101353.63;;;21.45;78.18
23574;BME280;11965;53.640;10.050;2022-07-21T04:17:51;101338.41;;;21.46;78.00
23574;BME280;11965;53.640;10.050;2022-07-21T04:20:17;101327.31;;;21.39;78.63
23574;BME280;11965;53.640;10.050;2022-07-21T04:22:46;101315.00;;;21.45;77.72
23574;BME280;11965;53.640;10.050;2022-07-21T04:25:12;101315.19;;;21.55;77.92
23574;BME280;11965;53.640;10.050;2022-07-21T04:27:38;101311.00;;;21.58;77.29
23574;BME280;11965;53.640;10.050;2022-07-21T04:30:06;101323.53;;;21.67;76.87
23574;BME280;11965;53.640;10.050;2022-07-21T04:32:33;101347.41;;;21.59;77.16
23574;BME280;11965;53.640;10.050;2022-07-21T04:34:58;101345.03;;;21.68;78.22
23574;BME280;11965;53.640;10.050;2022-07-21T04:37:24;101349.09;;;21.77;76.82
23574;BME280;11965;53.640;10.050;2022-07-21T04:39:49;101355.09;;;21.81;76.69
23574;BME280;11965;53.640;10.050;2022-07-21T04:42:15;101365.44;;;21.75;77.38
23574;BME280;11965;53.640;10.050;2022-07-21T04:44:41;101354.41;;;21.91;76.95
23574;BME280;11965;53.640;10.050;2022-07-21T04:47:06;101354.47;;;21.96;76.26
23574;BME280;11965;53.640;10.050;2022-07-21T04:49:32;101355.50;;;22.06;75.90
23574;BME280;11965;53.640;10.050;2022-07-21T04:51:57;101336.97;;;22.16;75.68
23574;BME280;11965;53.640;10.050;2022-07-21T04:54:23;101335.81;;;22.12;75.93
23574;BME280;11965;53.640;10.050;2022-07-21T04:56:49;101333.69;;;22.02;75.75
23574;BME280;11965;53.640;10.050;2022-07-21T04:59:14;101334.16;;;22.16;74.96
23574;BME280;11965;53.640;10.050;2022-07-21T05:01:40;101331.00;;;22.12;74.41
23574;BME280;11965;53.640;10.050;2022-07-21T05:04:06;101327.34;;;22.12;74.38
23574;BME280;11965;53.640;10.050;2022-07-21T05:06:31;101327.63;;;22.32;74.54
23574;BME280;11965;53.640;10.050;2022-07-21T05:08:57;101326.53;;;22.33;73.35
23574;BME280;11965;53.640;10.050;2022-07-21T05:11:23;101325.88;;;22.26;73.94
23574;BME280;11965;53.640;10.050;2022-07-21T05:13:50;101321.16;;;22.32;73.04
23574;BME280;11965;53.640;10.050;2022-07-21T05:16:15;101289.22;;;22.53;71.57
23574;BME280;11965;53.640;10.050;2022-07-21T05:18:41;101266.38;;;22.55;71.57
23574;BME280;11965;53.640;10.050;2022-07-21T05:21:06;101233.72;;;22.42;71.34
23574;BME280;11965;53.640;10.050;2022-07-21T05:23:32;101259.34;;;22.35;71.21
23574;BME280;11965;53.640;10.050;2022-07-21T05:25:58;101261.00;;;22.31;71.01
23574;BME280;11965;53.640;10.050;2022-07-21T05:28:23;101274.38;;;22.19;71.00
23574;BME280;11965;53.640;10.050;2022-07-21T05:30:48;101281.22;;;22.23;70.96
23574;BME280;11965;53.640;10.050;2022-07-21T05:33:14;101277.41;;;22.34;70.25
23574;BME280;11965;53.640;10.050;2022-07-21T05:35:40;101287.72;;;22.45;69.38
23574;BME280;11965;53.640;10.050;2022-07-21T05:38:05;101252.50;;;22.53;68.54
23574;BME280;11965;53.640;10.050;2022-07-21T05:40:32;101213.78;;;22.54;67.29
23574;BME280;11965;53.640;10.050;2022-07-21T05:42:57;101207.94;;;22.33;67.30
23574;BME280;11965;53.640;10.050;2022-07-21T05:45:23;101235.09;;;22.39;68.94
23574;BME280;11965;53.640;10.050;2022-07-21T05:47:49;101241.81;;;22.33;69.68
23574;BME280;11965;53.640;10.050;2022-07-21T05:50:14;101238.66;;;22.30;70.61
23574;BME280;11965;53.640;10.050;2022-07-21T05:52:40;101238.41;;;22.31;70.99
23574;BME280;11965;53.640;10.050;2022-07-21T05:55:06;101231.34;;;22.12;70.59
23574;BME280;11965;53.640;10.050;2022-07-21T05:57:33;101238.25;;;22.21;70.65
23574;BME280;11965;53.640;10.050;2022-07-21T05:59:58;101247.34;;;22.23;71.36
23574;BME280;11965;53.640;10.050;2022-07-21T06:02:25;101262.97;;;22.31;70.81
23574;BME280;11965;53.640;10.050;2022-07-21T06:04:51;101273.34;;;22.25;69.91
23574;BME280;11965;53.640;10.050;2022-07-21T06:07:19;101290.94;;;22.32;69.44
23574;BME280;11965;53.640;10.050;2022-07-21T06:09:45;101315.31;;;22.38;71.67
23574;BME280;11965;53.640;10.050;2022-07-21T06:12:11;101329.50;;;22.43;68.87
23574;BME280;11965;53.640;10.050;2022-07-21T06:14:36;101343.16;;;22.52;70.39
23574;BME280;11965;53.640;10.050;2022-07-21T06:17:01;101356.03;;;22.42;72.64
23574;BME280;11965;53.640;10.050;2022-07-21T06:19:27;101350.13;;;22.44;71.51
23574;BME280;11965;53.640;10.050;2022-07-21T06:21:53;101346.09;;;22.40;72.31
23574;BME280;11965;53.640;10.050;2022-07-21T06:24:18;101343.88;;;22.20;75.26
23574;BME280;11965;53.640;10.050;2022-07-21T06:26:47;101362.13;;;22.34;73.62
23574;BME280;11965;53.640;10.050;2022-07-21T06:29:13;101361.00;;;22.35;74.67
23574;BME280;11965;53.640;10.050;2022-07-21T06:31:38;101342.69;;;22.38;74.34
23574;BME280;11965;53.640;10.050;2022-07-21T06:34:04;101323.66;;;22.28;74.97
23574;BME280;11965;53.640;10.050;2022-07-21T06:36:30;101317.59;;;22.19;75.20
23574;BME280;11965;53.640;10.050;2022-07-21T06:38:55;101297.56;;;22.21;75.30
23574;BME280;11965;53.640;10.050;2022-07-21T06:41:20;101305.94;;;22.16;76.71
23574;BME280;11965;53.640;10.050;2022-07-21T06:43:47;101320.94;;;21.99;80.21
23574;BME280;11965;53.640;10.050;2022-07-21T06:46:13;101301.72;;;21.96;80.73
23574;BME280;11965;53.640;10.050;2022-07-21T06:48:39;101297.09;;;21.90;82.34
23574;BME280;11965;53.640;10.050;2022-07-21T06:51:04;101310.00;;;21.86;83.46
23574;BME280;11965;53.640;10.050;2022-07-21T06:53:30;101304.03;;;21.82;84.04
23574;BME280;11965;53.640;10.050;2022-07-21T06:55:55;101316.19;;;21.83;84.17
23574;BME280;11965;53.640;10.050;2022-07-21T06:58:22;101298.56;;;21.76;86.27
23574;BME280;11965;53.640;10.050;2022-07-21T07:00:50;101278.94;;;21.64;88.00
23574;BME280;11965;53.640;10.050;2022-07-21T07:03:16;101267.66;;;21.64;89.08
23574;BME280;11965;53.640;10.050;2022-07-21T07:08:08;101255.78;;;21.28;91.54
23574;BME280;11965;53.640;10.050;2022-07-21T07:10:35;101266.53;;;21.14;94.88
23574;BME280;11965;53.640;10.050;2022-07-21T07:13:00;101285.13;;;21.15;94.66
23574;BME280;11965;53.640;10.050;2022-07-21T07:15:28;101295.06;;;21.18;96.98
23574;BME280;11965;53.640;10.050;2022-07-21T07:17:54;101300.69;;;21.18;97.31
23574;BME280;11965;53.640;10.050;2022-07-21T07:20:20;101304.97;;;21.21;99.26
23574;BME280;11965;53.640;10.050;2022-07-21T07:22:45;101311.34;;;21.16;100.00
23574;BME280;11965;53.640;10.050;2022-07-21T07:25:11;101314.78;;;21.35;99.64
23574;BME280;11965;53.640;10.050;2022-07-21T07:27:42;101328.19;;;21.28;100.00
23574;BME280;11965;53.640;10.050;2022-07-21T07:30:08;101335.97;;;21.21;100.00
23574;BME280;11965;53.640;10.050;2022-07-21T07:32:34;101332.66;;;21.24;100.00
23574;BME280;11965;53.640;10.050;2022-07-21T07:35:00;101346.44;;;21.08;100.00
23574;BME280;11965;53.640;10.050;2022-07-21T07:37:25;101364.31;;;21.14;100.00
23574;BME280;11965;53.640;10.050;2022-07-21T07:39:51;101381.63;;;21.34;100.00
23574;BME280;11965;53.640;10.050;2022-07-21T07:42:16;101390.16;;;21.23;100.00
23574;BME280;11965;53.640;10.050;2022-07-21T07:44:43;101391.09;;;21.28;100.00
23574;BME280;11965;53.640;10.050;2022-07-21T07:47:09;101398.75;;;21.16;100.00
23574;BME280;11965;53.640;10.050;2022-07-21T07:49:34;101402.91;;;21.13;100.00
23574;BME280;11965;53.640;10.050;2022-07-21T07:51:59;101395.19;;;21.21;100.00
23574;BME280;11965;53.640;10.050;2022-07-21T07:54:25;101388.41;;;21.22;100.00
23574;BME280;11965;53.640;10.050;2022-07-21T07:56:51;101388.41;;;21.22;100.00
23574;BME280;11965;53.640;10.050;2022-07-21T07:59:16;101397.25;;;21.25;100.00
23574;BME280;11965;53.640;10.050;2022-07-21T08:01:42;101409.81;;;21.34;100.00
23574;BME280;11965;53.640;10.050;2022-07-21T08:04:07;101418.84;;;21.48;100.00
23574;BME280;11965;53.640;10.050;2022-07-21T08:06:34;101426.59;;;21.41;100.00
23574;BME280;11965;53.640;10.050;2022-07-21T08:08:59;101423.78;;;21.41;100.00
23574;BME280;11965;53.640;10.050;2022-07-21T08:11:25;101430.63;;;21.45;100.00
23574;BME280;11965;53.640;10.050;2022-07-21T08:13:51;101437.31;;;21.56;100.00
23574;BME280;11965;53.640;10.050;2022-07-21T08:16:18;101435.56;;;21.83;100.00
23574;BME280;11965;53.640;10.050;2022-07-21T08:18:44;101431.44;;;21.91;100.00
23574;BME280;11965;53.640;10.050;2022-07-21T08:21:10;101440.28;;;22.12;100.00
23574;BME280;11965;53.640;10.050;2022-07-21T08:23:36;101435.41;;;22.24;100.00
23574;BME280;11965;53.640;10.050;2022-07-21T08:26:01;101436.56;;;22.45;100.00
23574;BME280;11965;53.640;10.050;2022-07-21T08:28:27;101439.78;;;22.54;100.00
23574;BME280;11965;53.640;10.050;2022-07-21T08:30:52;101439.84;;;22.76;97.75
23574;BME280;11965;53.640;10.050;2022-07-21T08:33:19;101435.59;;;22.78;97.72
23574;BME280;11965;53.640;10.050;2022-07-21T08:35:45;101432.50;;;22.97;96.45
23574;BME280;11965;53.640;10.050;2022-07-21T08:38:11;101421.13;;;23.13;97.39
23574;BME280;11965;53.640;10.050;2022-07-21T08:40:41;101424.56;;;23.21;93.81
23574;BME280;11965;53.640;10.050;2022-07-21T08:43:07;101419.63;;;23.33;94.88
23574;BME280;11965;53.640;10.050;2022-07-21T08:45:34;101431.53;;;23.62;91.93
23574;BME280;11965;53.640;10.050;2022-07-21T08:48:00;101428.22;;;23.70;92.32
23574;BME280;11965;53.640;10.050;2022-07-21T08:50:31;101434.22;;;23.74;91.78
23574;BME280;11965;53.640;10.050;2022-07-21T08:52:57;101436.50;;;23.77;90.91
23574;BME280;11965;53.640;10.050;2022-07-21T08:55:23;101429.69;;;23.73;90.15
23574;BME280;11965;53.640;10.050;2022-07-21T08:57:48;101446.78;;;23.61;90.29
23574;BME280;11965;53.640;10.050;2022-07-21T09:00:14;101441.06;;;23.56;93.18
23574;BME280;11965;53.640;10.050;2022-07-21T09:02:40;101449.19;;;23.47;92.51
23574;BME280;11965;53.640;10.050;2022-07-21T09:05:07;101451.13;;;23.42;94.13
23574;BME280;11965;53.640;10.050;2022-07-21T09:07:47;101454.00;;;23.47;89.84
23574;BME280;11965;53.640;10.050;2022-07-21T09:10:14;101461.84;;;23.67;88.67
23574;BME280;11965;53.640;10.050;2022-07-21T09:12:55;101470.25;;;23.29;88.76
23574;BME280;11965;53.640;10.050;2022-07-21T09:15:23;101461.34;;;23.21;89.75
23574;BME280;11965;53.640;10.050;2022-07-21T09:18:10;101463.38;;;23.25;89.22
23574;BME280;11965;53.640;10.050;2022-07-21T09:20:36;101453.00;;;23.31;87.58
23574;BME280;11965;53.640;10.050;2022-07-21T09:23:10;101458.06;;;23.56;86.89
23574;BME280;11965;53.640;10.050;2022-07-21T09:25:39;101457.22;;;23.83;88.63
23574;BME280;11965;53.640;10.050;2022-07-21T09:31:10;101466.06;;;24.18;83.72
23574;BME280;11965;53.640;10.050;2022-07-21T09:33:41;101467.09;;;24.44;81.65
23574;BME280;11965;53.640;10.050;2022-07-21T09:36:09;101460.31;;;24.45;77.89
23574;BME280;11965;53.640;10.050;2022-07-21T09:38:37;101457.38;;;24.73;77.05
23574;BME280;11965;53.640;10.050;2022-07-21T09:41:16;101460.75;;;24.69;78.62
23574;BME280;11965;53.640;10.050;2022-07-21T09:43:51;101461.53;;;24.60;79.03
23574;BME280;11965;53.640;10.050;2022-07-21T09:46:22;101470.34;;;24.58;78.83
23574;BME280;11965;53.640;10.050;2022-07-21T09:48:54;101456.97;;;24.54;76.37
23574;BME280;11965;53.640;10.050;2022-07-21T09:51:22;101463.94;;;24.03;79.82
23574;BME280;11965;53.640;10.050;2022-07-21T09:54:02;101450.66;;;24.09;77.67
23574;BME280;11965;53.640;10.050;2022-07-21T09:56:31;101445.34;;;24.13;79.43
23574;BME280;11965;53.640;10.050;2022-07-21T09:58:58;101448.72;;;24.15;81.93
23574;BME280;11965;53.640;10.050;2022-07-21T10:01:25;101452.50;;;24.25;80.78
23574;BME280;11965;53.640;10.050;2022-07-21T10:03:52;101447.06;;;24.56;75.92
23574;BME280;11965;53.640;10.050;2022-07-21T10:06:24;101442.53;;;24.55;77.30
23574;BME280;11965;53.640;10.050;2022-07-21T10:08:50;101453.91;;;24.65;76.66
23574;BME280;11965;53.640;10.050;2022-07-21T10:11:16;101450.69;;;24.94;76.63
23574;BME280;11965;53.640;10.050;2022-07-21T10:13:43;101456.94;;;25.06;74.48
23574;BME280;11965;53.640;10.050;2022-07-21T10:16:10;101449.91;;;25.14;73.71
23574;BME280;11965;53.640;10.050;2022-07-21T10:21:47;101464.50;;;25.48;72.34
23574;BME280;11965;53.640;10.050;2022-07-21T10:24:16;101468.22;;;25.59;71.18
23574;BME280;11965;53.640;10.050;2022-07-21T10:27:08;101458.66;;;25.86;67.01
23574;BME280;11965;53.640;10.050;2022-07-21T10:29:53;101462.00;;;25.72;66.35
23574;BME280;11965;53.640;10.050;2022-07-21T10:32:22;101468.50;;;25.57;70.21
23574;BME280;11965;53.640;10.050;2022-07-21T10:34:48;101474.75;;;25.60;67.36
23574;BME280;11965;53.640;10.050;2022-07-21T10:40:05;101462.81;;;25.42;71.61
23574;BME280;11965;53.640;10.050;2022-07-21T10:42:31;101468.50;;;25.63;67.23
23574;BME280;11965;53.640;10.050;2022-07-21T10:44:57;101466.84;;;25.72;66.12
23574;BME280;11965;53.640;10.050;2022-07-21T10:47:23;101465.66;;;25.57;69.54
23574;BME280;11965;53.640;10.050;2022-07-21T10:49:58;101478.44;;;25.50;71.81
23574;BME280;11965;53.640;10.050;2022-07-21T10:57:43;101475.69;;;25.91;63.55
23574;BME280;11965;53.640;10.050;2022-07-21T11:02:47;101467.44;;;26.45;63.61
23574;BME280;11965;53.640;10.050;2022-07-21T11:05:13;101465.16;;;26.63;62.96
23574;BME280;11965;53.640;10.050;2022-07-21T11:08:14;101457.75;;;26.72;63.66
23574;BME280;11965;53.640;10.050;2022-07-21T11:10:49;101458.31;;;26.74;59.65
23574;BME280;11965;53.640;10.050;2022-07-21T11:13:15;101461.38;;;26.88;58.91
23574;BME280;11965;53.640;10.050;2022-07-21T11:18:17;101468.00;;;26.68;57.91
23574;BME280;11965;53.640;10.050;2022-07-21T11:23:46;101469.38;;;26.81;58.75
23574;BME280;11965;53.640;10.050;2022-07-21T11:26:16;101469.66;;;26.79;58.53
23574;BME280;11965;53.640;10.050;2022-07-21T11:28:42;101470.84;;;26.58;60.05
23574;BME280;11965;53.640;10.050;2022-07-21T11:31:10;101464.56;;;26.76;55.89
23574;BME280;11965;53.640;10.050;2022-07-21T11:33:38;101467.66;;;26.90;57.70
23574;BME280;11965;53.640;10.050;2022-07-21T11:36:04;101472.44;;;26.95;55.93
23574;BME280;11965;53.640;10.050;2022-07-21T11:38:29;101466.88;;;26.23;58.47
23574;BME280;11965;53.640;10.050;2022-07-21T11:41:12;101475.41;;;26.18;59.09
23574;BME280;11965;53.640;10.050;2022-07-21T11:43:42;101481.09;;;26.23;59.50
23574;BME280;11965;53.640;10.050;2022-07-21T11:46:08;101470.84;;;26.37;58.38
23574;BME280;11965;53.640;10.050;2022-07-21T11:48:33;101465.75;;;26.19;59.12
23574;BME280;11965;53.640;10.050;2022-07-21T11:51:00;101469.16;;;26.21;59.49
23574;BME280;11965;53.640;10.050;2022-07-21T11:53:25;101471.72;;;26.28;59.51
23574;BME280;11965;53.640;10.050;2022-07-21T11:55:51;101462.31;;;26.22;60.01
23574;BME280;11965;53.640;10.050;2022-07-21T11:58:19;101460.94;;;25.99;61.26
23574;BME280;11965;53.640;10.050;2022-07-21T12:00:44;101450.38;;;26.30;59.98
23574;BME280;11965;53.640;10.050;2022-07-21T12:03:12;101453.75;;;26.73;56.67
23574;BME280;11965;53.640;10.050;2022-07-21T12:05:39;101440.66;;;26.82;53.94
23574;BME280;11965;53.640;10.050;2022-07-21T12:08:06;101443.16;;;26.94;54.33
23574;BME280;11965;53.640;10.050;2022-07-21T12:10:32;101442.22;;;27.19;55.62
23574;BME280;11965;53.640;10.050;2022-07-21T12:13:06;101437.66;;;27.23;55.67
23574;BME280;11965;53.640;10.050;2022-07-21T12:15:34;101440.03;;;26.91;57.16
23574;BME280;11965;53.640;10.050;2022-07-21T12:18:08;101431.97;;;27.18;55.93
23574;BME280;11965;53.640;10.050;2022-07-21T12:20:37;101439.66;;;27.18;52.29
23574;BME280;11965;53.640;10.050;2022-07-21T12:23:27;101438.53;;;27.14;53.01
23574;BME280;11965;53.640;10.050;2022-07-21T12:25:56;101428.06;;;26.99;54.44
23574;BME280;11965;53.640;10.050;2022-07-21T12:28:50;101429.91;;;27.34;53.90
23574;BME280;11965;53.640;10.050;2022-07-21T12:31:21;101433.06;;;27.72;51.20
23574;BME280;11965;53.640;10.050;2022-07-21T12:33:51;101428.19;;;27.77;53.02
23574;BME280;11965;53.640;10.050;2022-07-21T12:36:19;101425.88;;;27.85;51.37
23574;BME280;11965;53.640;10.050;2022-07-21T12:38:46;101420.78;;;27.32;51.89
23574;BME280;11965;53.640;10.050;2022-07-21T12:41:16;101423.50;;;27.03;54.72
23574;BME280;11965;53.640;10.050;2022-07-21T12:43:42;101419.88;;;26.87;56.72
23574;BME280;11965;53.640;10.050;2022-07-21T12:46:12;101417.75;;;27.13;54.48
23574;BME280;11965;53.640;10.050;2022-07-21T12:48:40;101412.41;;;27.01;56.75
23574;BME280;11965;53.640;10.050;2022-07-21T12:51:12;101401.59;;;27.03;55.36
23574;BME280;11965;53.640;10.050;2022-07-21T12:53:42;101402.41;;;27.09;55.07
23574;BME280;11965;53.640;10.050;2022-07-21T12:56:08;101402.88;;;27.31;53.74
23574;BME280;11965;53.640;10.050;2022-07-21T12:58:35;101404.38;;;27.14;52.84
23574;BME280;11965;53.640;10.050;2022-07-21T13:01:02;101398.56;;;27.39;52.51
23574;BME280;11965;53.640;10.050;2022-07-21T13:03:29;101412.13;;;27.03;51.90